Time;durP1;ratioP1;P1;durP2;ratioP2;P2;SDS_P1;SDS_P2;PMS_P1;PMS_P2;Temp;Humidity;BMP_temperature;BMP_pressure;BME280_temperature;BME280_humidity;BME280_pressure;Samples;Min_cycle;Max_cycle;Signal;HPM_P1;HPM_P2
2023/09/22 00:00:21;;;;;;;3.80;3.40;;;;;;;18.58;65.51;99629.95;108887;278;39424;-76
2023/09/22 00:03:19;;;;;;;4.50;3.10;;;;;;;18.56;65.56;99626.61;108980;278;38644;-74
2023/09/22 00:05:58;;;;;;;5.40;3.20;;;;;;;18.53;65.49;99627.36;109008;278;38668;-74
2023/09/22 00:08:32;;;;;;;3.90;3.20;;;;;;;18.51;65.53;99626.84;108937;278;39864;-74
2023/09/22 00:11:12;;;;;;;4.20;3.10;;;;;;;18.49;65.64;99625.23;109008;278;38214;-75
2023/09/22 00:13:49;;;;;;;4.00;3.20;;;;;;;18.48;65.50;99627.59;108925;278;38333;-75
2023/09/22 00:16:24;;;;;;;5.60;3.50;;;;;;;18.48;65.74;99624.11;108927;278;38309;-75
2023/09/22 00:19:05;;;;;;;5.80;3.40;;;;;;;18.46;65.56;99624.92;108891;278;38398;-75
2023/09/22 00:21:41;;;;;;;5.30;3.50;;;;;;;18.44;65.70;99620.20;108914;278;175607;-74
2023/09/22 00:24:16;;;;;;;4.40;2.90;;;;;;;18.42;65.67;99624.92;109015;278;39510;-74
2023/09/22 00:26:53;;;;;;;3.80;3.00;;;;;;;18.41;65.72;99623.05;108987;278;38436;-74
2023/09/22 00:29:27;;;;;;;5.30;3.80;;;;;;;18.41;65.78;99619.88;108976;278;38437;-74
2023/09/22 00:32:03;;;;;;;4.90;2.90;;;;;;;18.41;65.82;99611.45;109015;278;38463;-74
2023/09/22 00:34:39;;;;;;;4.70;3.00;;;;;;;18.40;65.73;99615.06;108978;278;38384;-74
2023/09/22 00:37:19;;;;;;;6.20;3.40;;;;;;;18.39;65.90;99613.54;108983;278;38374;-76
2023/09/22 00:39:59;;;;;;;3.40;2.90;;;;;;;18.37;65.92;99611.80;108958;278;38400;-74
2023/09/22 00:42:33;;;;;;;3.40;3.10;;;;;;;18.33;65.95;99609.39;108967;278;38398;-75
2023/09/22 00:45:14;;;;;;;6.30;3.20;;;;;;;18.31;66.02;99612.03;108971;278;38289;-75
2023/09/22 00:47:52;;;;;;;4.10;3.40;;;;;;;18.30;66.17;99609.52;108954;278;39489;-75
2023/09/22 00:50:40;;;;;;;6.20;3.00;;;;;;;18.30;66.13;99607.39;108957;278;39507;-74
2023/09/22 00:53:14;;;;;;;5.60;3.00;;;;;;;18.30;66.22;99609.70;108922;278;38360;-75
2023/09/22 00:55:51;;;;;;;4.70;3.20;;;;;;;18.28;66.32;99602.97;108904;278;38277;-75
2023/09/22 00:58:26;;;;;;;4.70;3.10;;;;;;;18.24;66.29;99596.71;108929;278;38301;-74
2023/09/22 01:01:03;;;;;;;4.00;2.90;;;;;;;18.22;66.32;99596.20;108910;278;38212;-73
2023/09/22 01:03:37;;;;;;;5.80;3.40;;;;;;;18.21;66.39;99596.80;108920;277;40062;-74
2023/09/22 01:06:14;;;;;;;4.70;3.10;;;;;;;18.19;66.49;99596.86;108910;278;39200;-75
2023/09/22 01:08:51;;;;;;;3.50;3.10;;;;;;;18.18;66.60;99596.95;108917;278;39321;-75
2023/09/22 01:11:25;;;;;;;4.00;3.10;;;;;;;18.16;66.69;99601.50;108956;278;38694;-75
2023/09/22 01:14:01;;;;;;;4.30;3.00;;;;;;;18.13;66.76;99595.73;108900;278;38201;-74
2023/09/22 01:16:41;;;;;;;5.40;2.90;;;;;;;18.12;66.77;99591.42;108987;278;39311;-75
2023/09/22 01:19:21;;;;;;;6.70;3.20;;;;;;;18.12;67.03;99591.25;108925;278;39528;-74
2023/09/22 01:22:03;;;;;;;3.20;2.80;;;;;;;18.10;66.95;99591.19;108912;278;38273;-75
2023/09/22 01:24:40;;;;;;;4.10;3.20;;;;;;;18.09;67.06;99593.79;108931;277;174912;-75
2023/09/22 01:27:18;;;;;;;5.20;3.30;;;;;;;18.06;66.99;99591.70;108975;278;39153;-75
2023/09/22 01:29:53;;;;;;;5.00;3.10;;;;;;;18.04;67.01;99589.06;108976;278;39852;-74
2023/09/22 01:32:29;;;;;;;3.30;2.80;;;;;;;18.01;67.25;99591.19;108980;278;39827;-74
2023/09/22 01:35:07;;;;;;;5.90;3.20;;;;;;;18.01;67.22;99588.71;109000;278;39390;-75
2023/09/22 01:37:44;;;;;;;4.30;3.10;;;;;;;18.01;67.42;99585.02;109041;278;38388;-74
2023/09/22 01:40:19;;;;;;;3.90;3.40;;;;;;;17.99;67.35;99581.27;108985;278;38146;-74
2023/09/22 01:42:54;;;;;;;4.00;3.20;;;;;;;17.97;67.39;99577.08;108965;278;38401;-74
2023/09/22 01:45:30;;;;;;;4.30;3.20;;;;;;;17.94;67.44;99575.88;107602;278;895517;-73
2023/09/22 01:48:05;;;;;;;6.00;3.30;;;;;;;17.93;67.51;99575.11;108972;278;39195;-73
2023/09/22 01:50:44;;;;;;;3.80;2.90;;;;;;;17.92;67.59;99570.59;108937;278;38492;-74
2023/09/22 01:53:23;;;;;;;6.60;3.10;;;;;;;17.91;67.83;99569.27;108906;278;39288;-76
2023/09/22 01:55:57;;;;;;;4.60;3.60;;;;;;;17.91;67.66;99569.81;108931;278;38163;-76
2023/09/22 01:58:31;;;;;;;4.00;3.10;;;;;;;17.89;67.86;99566.12;108929;278;38995;-73
2023/09/22 02:01:06;;;;;;;4.10;2.80;;;;;;;17.85;68.01;99566.55;108965;278;39655;-74
2023/09/22 02:03:41;;;;;;;4.00;3.20;;;;;;;17.82;68.00;99564.89;108947;278;38294;-74
2023/09/22 02:06:17;;;;;;;5.20;3.10;;;;;;;17.81;68.08;99569.55;108924;278;38428;-74
2023/09/22 02:08:52;;;;;;;5.40;3.00;;;;;;;17.81;68.11;99572.56;108919;278;38170;-76
2023/09/22 02:11:30;;;;;;;5.80;3.40;;;;;;;17.82;68.27;99568.08;108997;278;38780;-74
2023/09/22 02:14:07;;;;;;;4.40;3.10;;;;;;;17.83;68.39;99567.82;109022;278;38169;-76
2023/09/22 02:16:41;;;;;;;5.60;3.30;;;;;;;17.82;68.37;99568.77;109049;278;38791;-74
2023/09/22 02:19:18;;;;;;;3.80;2.80;;;;;;;17.80;68.32;99569.45;109012;278;39358;-74
2023/09/22 02:21:52;;;;;;;6.90;3.10;;;;;;;17.79;68.46;99569.02;109029;278;39419;-75
2023/09/22 02:24:30;;;;;;;5.20;2.80;;;;;;;17.78;68.44;99560.75;108983;278;38742;-74
2023/09/22 02:27:08;;;;;;;3.40;3.00;;;;;;;17.78;68.60;99565.38;109032;278;38530;-74
2023/09/22 02:29:42;;;;;;;4.70;3.60;;;;;;;17.78;68.58;99564.51;108912;278;38359;-75
2023/09/22 02:32:21;;;;;;;6.50;3.20;;;;;;;17.76;68.54;99563.23;108930;278;38225;-75
2023/09/22 02:34:59;;;;;;;4.60;3.10;;;;;;;17.73;68.60;99560.62;108921;278;39344;-75
2023/09/22 02:37:34;;;;;;;4.20;3.20;;;;;;;17.71;68.76;99558.86;108915;278;40351;-74
2023/09/22 02:40:13;;;;;;;3.90;2.70;;;;;;;17.69;68.83;99556.73;108922;278;38154;-75
2023/09/22 02:42:48;;;;;;;5.70;3.40;;;;;;;17.68;68.78;99559.11;108921;278;38750;-74
2023/09/22 02:45:24;;;;;;;3.80;3.10;;;;;;;17.67;68.92;99558.30;108909;278;39858;-73
2023/09/22 02:48:03;;;;;;;4.70;2.90;;;;;;;17.65;68.99;99557.06;108954;278;39631;-76
2023/09/22 02:50:45;;;;;;;5.10;2.80;;;;;;;17.60;69.03;99556.21;108921;278;39012;-75
2023/09/22 02:53:37;;;;;;;4.00;2.90;;;;;;;17.59;69.14;99550.71;108981;278;39447;-74
2023/09/22 02:56:17;;;;;;;3.80;2.90;;;;;;;17.56;69.19;99550.39;108960;278;38168;-74
2023/09/22 02:58:56;;;;;;;5.10;2.80;;;;;;;17.55;69.32;99555.21;108998;278;38215;-73
2023/09/22 03:01:36;;;;;;;4.10;3.10;;;;;;;17.52;69.51;99551.92;108990;278;38300;-74
2023/09/22 03:04:12;;;;;;;4.20;3.10;;;;;;;17.49;69.78;99551.95;109029;278;38395;-74
2023/09/22 03:06:46;;;;;;;5.60;2.90;;;;;;;17.47;69.63;99551.28;108984;278;38428;-74
2023/09/22 03:09:25;;;;;;;3.80;3.10;;;;;;;17.46;69.75;99551.19;108963;278;39801;-74
2023/09/22 03:12:08;;;;;;;4.80;2.90;;;;;;;17.44;69.77;99546.88;108986;278;38362;-73
2023/09/22 03:14:55;;;;;;;6.40;3.20;;;;;;;17.44;69.96;99546.72;108977;270;38637;-75
2023/09/22 03:17:33;;;;;;;5.50;3.80;;;;;;;17.45;70.06;99544.36;108948;278;39412;-74
2023/09/22 03:20:12;;;;;;;3.60;3.00;;;;;;;17.45;70.11;99539.80;108939;278;38560;-75
2023/09/22 03:22:50;;;;;;;4.00;3.00;;;;;;;17.44;70.13;99538.64;108946;278;38248;-73
2023/09/22 03:25:25;;;;;;;4.10;3.00;;;;;;;17.43;70.02;99542.80;108873;278;40418;-73
2023/09/22 03:28:01;;;;;;;4.20;3.00;;;;;;;17.42;70.12;99540.05;108934;278;38359;-73
2023/09/22 03:30:37;;;;;;;5.60;3.50;;;;;;;17.41;70.20;99538.66;108772;278;174909;-74
2023/09/22 03:33:13;;;;;;;4.40;3.10;;;;;;;17.41;70.14;99542.05;108944;278;38940;-74
2023/09/22 03:35:57;;;;;;;4.50;3.20;;;;;;;17.40;70.30;99542.15;108890;278;38863;-73
2023/09/22 03:38:32;;;;;;;4.80;3.00;;;;;;;17.36;70.51;99534.15;108951;278;38604;-74
2023/09/22 03:41:09;;;;;;;4.70;3.00;;;;;;;17.33;70.52;99533.67;108940;278;38296;-74
2023/09/22 03:43:47;;;;;;;4.70;3.10;;;;;;;17.32;70.57;99540.84;108962;278;39643;-73
2023/09/22 03:46:25;;;;;;;3.80;3.20;;;;;;;17.31;70.68;99541.46;108923;278;38192;-75
2023/09/22 03:49:03;;;;;;;3.30;2.80;;;;;;;17.30;70.77;99535.16;108976;278;38344;-74
2023/09/22 03:51:37;;;;;;;4.40;3.20;;;;;;;17.30;70.86;99535.71;109039;278;38760;-74
2023/09/22 03:54:14;;;;;;;4.40;3.50;;;;;;;17.28;70.86;99533.54;109047;278;38571;-74
2023/09/22 03:56:58;;;;;;;5.10;3.50;;;;;;;17.27;70.90;99538.23;109033;278;38474;-74
2023/09/22 03:59:42;;;;;;;6.40;3.80;;;;;;;17.25;71.01;99538.03;108992;278;38137;-73
2023/09/22 04:02:20;;;;;;;5.80;3.10;;;;;;;17.24;71.23;99538.29;109013;278;39384;-73
2023/09/22 04:04:57;;;;;;;7.60;3.00;;;;;;;17.23;71.22;99539.09;108996;278;38475;-73
2023/09/22 04:07:33;;;;;;;4.10;2.90;;;;;;;17.23;71.36;99537.07;108992;278;38309;-75
2023/09/22 04:10:10;;;;;;;4.90;3.30;;;;;;;17.24;71.42;99534.25;108924;278;38337;-74
2023/09/22 04:12:45;;;;;;;5.40;3.50;;;;;;;17.21;71.43;99541.32;108964;278;38470;-74
2023/09/22 04:15:22;;;;;;;4.90;2.70;;;;;;;17.19;71.53;99544.50;108947;278;38689;-74
2023/09/22 04:17:57;;;;;;;4.10;3.20;;;;;;;17.19;71.72;99547.14;108904;278;38489;-74
2023/09/22 04:20:55;;;;;;;4.50;3.00;;;;;;;17.19;71.63;99549.77;108883;278;38252;-74
2023/09/22 04:23:45;;;;;;;6.60;3.50;;;;;;;17.19;71.73;99546.61;108872;278;38183;-74
2023/09/22 04:26:27;;;;;;;3.90;3.10;;;;;;;17.19;71.87;99549.41;108307;278;896798;-75
2023/09/22 04:29:01;;;;;;;5.30;2.90;;;;;;;17.19;71.79;99548.55;108962;278;39383;-75
2023/09/22 04:31:36;;;;;;;6.30;3.00;;;;;;;17.18;71.91;99544.92;108928;278;38805;-74
2023/09/22 04:34:14;;;;;;;5.10;3.00;;;;;;;17.20;72.10;99540.01;108978;278;39458;-74
2023/09/22 04:36:52;;;;;;;4.70;2.80;;;;;;;17.22;72.09;99541.91;109012;278;39468;-74
2023/09/22 04:39:31;;;;;;;5.50;3.00;;;;;;;17.25;72.15;99543.48;109004;278;40190;-74
2023/09/22 04:42:08;;;;;;;5.10;3.20;;;;;;;17.29;72.05;99543.39;109036;278;38507;-74
2023/09/22 04:44:42;;;;;;;4.50;3.00;;;;;;;17.29;72.16;99535.24;108873;278;39605;-74
2023/09/22 04:47:16;;;;;;;4.70;3.30;;;;;;;17.33;72.04;99531.79;108908;278;38909;-74
2023/09/22 04:49:53;;;;;;;4.10;3.00;;;;;;;17.36;72.03;99532.56;108820;278;174536;-74
2023/09/22 04:52:30;;;;;;;4.40;2.70;;;;;;;17.42;72.05;99528.39;108952;278;39623;-74
2023/09/22 04:55:06;;;;;;;3.90;3.20;;;;;;;17.46;72.08;99527.02;108921;278;39596;-74
2023/09/22 04:57:43;;;;;;;4.30;3.10;;;;;;;17.48;72.00;99528.77;108937;278;39268;-74
2023/09/22 05:00:27;;;;;;;7.40;3.20;;;;;;;17.50;71.80;99524.93;108942;278;38160;-75
2023/09/22 05:03:02;;;;;;;4.50;2.90;;;;;;;17.52;71.67;99520.15;108997;278;38601;-75
2023/09/22 05:05:39;;;;;;;5.60;2.90;;;;;;;17.56;71.77;99512.31;108949;278;38873;-75
2023/09/22 05:08:13;;;;;;;4.50;2.60;;;;;;;17.59;71.80;99514.20;109008;278;39670;-75
2023/09/22 05:10:55;;;;;;;5.30;3.40;;;;;;;17.64;71.73;99516.41;108957;278;38160;-74
2023/09/22 05:13:36;;;;;;;6.20;3.30;;;;;;;17.69;71.73;99518.33;108930;278;38240;-74
2023/09/22 05:16:13;;;;;;;4.90;3.10;;;;;;;17.73;71.61;99523.43;108939;278;39460;-75
2023/09/22 05:18:49;;;;;;;3.70;3.10;;;;;;;17.79;71.47;99523.11;108889;278;174892;-75
2023/09/22 05:21:24;;;;;;;3.90;2.70;;;;;;;17.87;71.27;99518.30;109004;278;38451;-75
2023/09/22 05:23:58;;;;;;;5.00;3.10;;;;;;;17.94;71.22;99517.12;108861;278;175662;-75
2023/09/22 05:26:38;;;;;;;4.30;3.00;;;;;;;18.01;70.92;99519.92;108965;278;39648;-74
2023/09/22 05:29:14;;;;;;;5.10;3.20;;;;;;;18.06;70.73;99516.17;108937;278;38973;-73
2023/09/22 05:31:53;;;;;;;5.40;3.20;;;;;;;18.11;70.79;99517.30;109007;278;40277;-73
2023/09/22 05:34:28;;;;;;;4.90;3.00;;;;;;;18.19;70.50;99516.36;108909;278;38275;-73
2023/09/22 05:37:06;;;;;;;4.70;3.50;;;;;;;18.25;70.44;99513.85;108927;278;39622;-73
2023/09/22 05:39:43;;;;;;;4.40;3.00;;;;;;;18.33;70.36;99514.42;108888;278;39322;-73
2023/09/22 05:42:19;;;;;;;5.00;2.90;;;;;;;18.46;70.43;99515.79;108972;278;39323;-75
2023/09/22 05:44:58;;;;;;;6.20;3.40;;;;;;;18.93;70.61;99507.25;108962;278;38440;-74
2023/09/22 05:47:40;;;;;;;5.50;3.30;;;;;;;19.83;69.94;99508.31;108989;278;38687;-74
2023/09/22 05:50:23;;;;;;;4.90;3.10;;;;;;;20.68;68.02;99502.97;108915;278;38216;-75
2023/09/22 05:52:59;;;;;;;6.10;3.10;;;;;;;21.38;65.38;99505.23;108995;278;39039;-77
2023/09/22 05:55:36;;;;;;;7.80;3.30;;;;;;;21.84;62.87;99514.19;108905;278;39367;-72
2023/09/22 05:58:13;;;;;;;6.20;3.20;;;;;;;21.92;61.52;99510.39;109038;278;39071;-71
2023/09/22 06:01:00;;;;;;;4.70;3.30;;;;;;;22.00;60.76;99505.70;108917;278;38499;-69
2023/09/22 06:03:41;;;;;;;5.60;3.20;;;;;;;21.93;60.41;99507.51;108965;278;38243;-71
2023/09/22 06:06:21;;;;;;;5.60;3.10;;;;;;;21.83;60.23;99509.65;109020;278;39797;-71
2023/09/22 06:08:57;;;;;;;4.40;3.20;;;;;;;21.87;59.65;99512.62;108942;278;39578;-73
2023/09/22 06:11:36;;;;;;;5.10;3.40;;;;;;;21.79;60.24;99514.03;108976;278;38225;-75
2023/09/22 06:14:14;;;;;;;4.40;3.20;;;;;;;21.72;60.21;99512.69;109019;278;39325;-74
2023/09/22 06:16:49;;;;;;;6.50;3.10;;;;;;;21.64;60.13;99515.80;108886;278;172052;-76
2023/09/22 06:19:24;;;;;;;7.60;3.60;;;;;;;21.55;60.16;99517.00;108962;278;38183;-74
2023/09/22 06:22:03;;;;;;;4.80;3.20;;;;;;;21.46;60.21;99518.66;108981;278;38380;-73
2023/09/22 06:24:39;;;;;;;6.00;3.70;;;;;;;21.36;60.60;99519.44;108895;278;38700;-74
2023/09/22 06:27:16;;;;;;;6.20;3.70;;;;;;;21.25;60.56;99524.37;109004;278;39444;-73
2023/09/22 06:29:57;;;;;;;5.70;3.70;;;;;;;21.13;60.89;99522.31;108888;278;39411;-73
2023/09/22 06:32:32;;;;;;;5.50;3.50;;;;;;;21.03;61.25;99519.16;108939;278;38768;-73
2023/09/22 06:35:08;;;;;;;6.10;3.80;;;;;;;20.92;61.56;99524.13;108906;278;39821;-74
2023/09/22 06:37:44;;;;;;;7.70;3.60;;;;;;;20.85;61.91;99528.01;108903;278;39302;-73
2023/09/22 06:40:19;;;;;;;9.80;3.70;;;;;;;20.84;62.32;99527.52;108867;278;39333;-73
2023/09/22 06:42:55;;;;;;;6.60;3.80;;;;;;;20.86;62.57;99526.63;108923;278;39153;-75
2023/09/22 06:45:33;;;;;;;6.80;4.30;;;;;;;20.92;62.88;99531.60;108769;278;174381;-75
2023/09/22 06:48:12;;;;;;;6.70;3.80;;;;;;;21.02;63.09;99529.93;108891;278;38843;-75
2023/09/22 06:50:51;;;;;;;7.10;3.60;;;;;;;21.18;63.18;99530.36;108925;278;40608;-73
2023/09/22 06:53:29;;;;;;;5.40;3.90;;;;;;;21.34;62.86;99533.28;108921;278;38742;-73
2023/09/22 06:56:10;;;;;;;7.00;4.00;;;;;;;21.49;62.44;99532.04;109013;278;38823;-73
2023/09/22 06:58:44;;;;;;;6.90;3.80;;;;;;;21.57;62.24;99536.50;108431;278;737169;-73
2023/09/22 07:01:20;;;;;;;7.00;3.90;;;;;;;21.63;61.77;99538.07;108997;278;38616;-74
2023/09/22 07:03:58;;;;;;;7.00;4.40;;;;;;;21.68;61.43;99544.40;109006;278;38447;-74
2023/09/22 07:06:36;;;;;;;8.70;3.60;;;;;;;21.70;61.24;99543.62;108942;278;38262;-76
2023/09/22 07:09:12;;;;;;;6.90;3.70;;;;;;;21.73;61.44;99544.97;108951;278;38353;-74
2023/09/22 07:11:47;;;;;;;6.70;4.00;;;;;;;21.79;61.41;99550.59;108920;278;38942;-74
2023/09/22 07:14:24;;;;;;;5.50;4.30;;;;;;;21.82;61.02;99552.58;108952;278;38487;-74
2023/09/22 07:17:05;;;;;;;7.90;4.00;;;;;;;21.85;61.11;99550.34;108926;278;39441;-74
2023/09/22 07:19:49;;;;;;;9.10;4.20;;;;;;;21.87;61.04;99548.30;108779;278;176448;-74
2023/09/22 07:22:27;;;;;;;9.30;4.20;;;;;;;21.92;61.29;99545.77;108958;278;38190;-71
2023/09/22 07:25:04;;;;;;;5.70;3.80;;;;;;;21.98;60.74;99547.82;108935;278;38491;-69
2023/09/22 07:27:39;;;;;;;6.00;4.20;;;;;;;22.00;60.69;99550.80;108952;278;39493;-73
2023/09/22 07:30:14;;;;;;;7.00;4.10;;;;;;;22.04;60.54;99549.20;108965;278;39442;-73
2023/09/22 07:32:48;;;;;;;7.80;4.40;;;;;;;22.12;60.61;99553.48;108928;278;38177;-72
2023/09/22 07:35:24;;;;;;;9.10;4.70;;;;;;;22.27;60.30;99550.29;108820;278;174687;-72
2023/09/22 07:37:58;;;;;;;6.50;4.20;;;;;;;22.49;60.19;99556.59;108979;278;38460;-71
2023/09/22 07:40:34;;;;;;;7.90;4.30;;;;;;;22.75;60.44;99555.52;108984;278;39316;-71
2023/09/22 07:43:11;;;;;;;7.00;4.20;;;;;;;23.06;59.37;99547.46;108998;278;38862;-71
2023/09/22 07:45:45;;;;;;;6.30;4.20;;;;;;;23.45;59.17;99549.44;109003;278;38915;-72
2023/09/22 07:48:23;;;;;;;5.80;4.30;;;;;;;23.86;58.36;99553.70;108941;277;174606;-72
2023/09/22 07:50:57;;;;;;;7.70;4.60;;;;;;;24.38;57.63;99556.27;109007;278;38881;-72
2023/09/22 07:53:33;;;;;;;7.50;4.00;;;;;;;24.90;55.82;99558.20;108998;278;38280;-73
2023/09/22 07:56:12;;;;;;;7.20;4.50;;;;;;;25.41;54.41;99551.92;108943;278;38409;-73
2023/09/22 07:58:46;;;;;;;8.60;4.20;;;;;;;25.94;52.94;99553.05;108911;278;39733;-73
2023/09/22 08:01:24;;;;;;;9.80;4.00;;;;;;;26.57;52.58;99544.48;108937;278;39232;-72
2023/09/22 08:03:58;;;;;;;7.00;4.00;;;;;;;27.25;50.88;99535.59;108953;278;38265;-70
2023/09/22 08:06:37;;;;;;;7.80;4.10;;;;;;;27.97;49.29;99528.23;108918;278;39733;-72
2023/09/22 08:09:16;;;;;;;6.30;4.00;;;;;;;28.67;47.94;99529.98;108910;278;38184;-73
2023/09/22 08:11:52;;;;;;;6.60;3.90;;;;;;;29.29;45.59;99530.09;108940;278;38812;-73
2023/09/22 08:14:27;;;;;;;6.50;4.00;;;;;;;29.65;43.69;99528.05;108912;278;39571;-73
2023/09/22 08:17:04;;;;;;;8.70;4.50;;;;;;;29.89;43.79;99521.80;108982;278;39876;-73
2023/09/22 08:19:40;;;;;;;9.80;3.90;;;;;;;30.26;43.04;99519.82;108955;278;38512;-73
2023/09/22 08:22:18;;;;;;;6.00;3.70;;;;;;;30.45;42.10;99520.23;108964;278;39250;-71
2023/09/22 08:24:56;;;;;;;4.70;3.70;;;;;;;30.53;41.96;99521.48;108971;278;38374;-72
2023/09/22 08:27:32;;;;;;;7.10;3.60;;;;;;;30.51;41.64;99531.73;108957;278;38155;-71
2023/09/22 08:30:12;;;;;;;7.40;3.80;;;;;;;30.34;41.19;99541.49;108939;278;38842;-71
2023/09/22 08:32:49;;;;;;;7.10;3.90;;;;;;;30.12;41.56;99542.07;108935;278;38245;-72
2023/09/22 08:35:26;;;;;;;7.00;3.90;;;;;;;30.03;42.09;99544.40;108924;278;38149;-74
2023/09/22 08:38:03;;;;;;;6.60;4.20;;;;;;;29.94;41.88;99550.48;108979;278;38437;-72
2023/09/22 08:40:40;;;;;;;10.00;5.00;;;;;;;29.74;42.46;99552.71;108893;278;39302;-75
2023/09/22 08:43:15;;;;;;;7.20;4.00;;;;;;;29.74;42.25;99560.85;108947;278;38165;-75
2023/09/22 08:45:53;;;;;;;7.30;3.70;;;;;;;29.83;42.57;99561.29;108907;278;39337;-74
2023/09/22 08:48:30;;;;;;;6.80;3.90;;;;;;;29.96;42.62;99559.63;108909;278;38266;-76
2023/09/22 08:51:04;;;;;;;7.60;4.30;;;;;;;29.92;42.12;99552.14;108973;278;38169;-74
2023/09/22 08:53:38;;;;;;;5.70;4.00;;;;;;;29.79;42.25;99549.57;108968;278;38563;-74
2023/09/22 08:56:16;;;;;;;8.00;4.80;;;;;;;29.64;42.90;99546.49;108957;278;38192;-74
2023/09/22 08:58:52;;;;;;;6.90;3.70;;;;;;;29.44;43.04;99543.65;108909;278;38421;-74
2023/09/22 09:01:27;;;;;;;8.00;4.10;;;;;;;29.17;42.94;99540.57;108924;278;38117;-77
2023/09/22 09:04:01;;;;;;;7.80;4.30;;;;;;;28.88;43.29;99530.38;108910;278;39118;-74
2023/09/22 09:06:46;;;;;;;6.90;4.40;;;;;;;28.60;43.85;99522.96;108959;278;38254;-74
2023/09/22 09:09:21;;;;;;;7.00;4.50;;;;;;;28.37;44.59;99515.81;108999;278;38853;-74
2023/09/22 09:12:10;;;;;;;6.80;4.40;;;;;;;28.26;45.05;99509.99;108894;278;38155;-74
2023/09/22 09:14:49;;;;;;;6.30;4.60;;;;;;;28.22;45.39;99508.55;108943;278;38657;-75
2023/09/22 09:17:31;;;;;;;7.80;4.70;;;;;;;28.31;45.47;99504.61;108975;278;38354;-74
2023/09/22 09:20:10;;;;;;;6.90;4.40;;;;;;;28.51;44.96;99496.82;108967;278;39099;-74
2023/09/22 09:22:50;;;;;;;6.90;4.70;;;;;;;28.82;44.32;99486.25;108960;278;38221;-75
2023/09/22 09:25:26;;;;;;;7.90;4.20;;;;;;;29.19;43.67;99485.90;108962;278;38218;-76
2023/09/22 09:28:06;;;;;;;7.40;4.40;;;;;;;29.62;43.22;99477.46;108961;278;39581;-75
2023/09/22 09:30:43;;;;;;;7.30;4.30;;;;;;;30.07;41.97;99482.00;108880;278;39456;-75
2023/09/22 09:33:19;;;;;;;9.10;4.20;;;;;;;30.46;41.51;99484.27;109003;278;38509;-74
2023/09/22 09:35:55;;;;;;;8.90;4.50;;;;;;;30.92;41.18;99486.34;108910;278;39112;-74
2023/09/22 09:38:31;;;;;;;7.50;4.10;;;;;;;31.36;40.00;99494.45;108993;278;38276;-74
2023/09/22 09:41:05;;;;;;;6.90;4.60;;;;;;;31.61;39.36;99492.77;108931;278;38186;-74
2023/09/22 09:43:39;;;;;;;6.00;4.10;;;;;;;31.67;39.09;99492.17;108914;278;37577;-74
2023/09/22 09:46:15;;;;;;;8.30;4.40;;;;;;;31.67;39.23;99493.36;108931;278;39439;-74
2023/09/22 09:48:55;;;;;;;7.00;4.80;;;;;;;31.49;38.57;99482.54;108902;278;38807;-74
2023/09/22 09:51:32;;;;;;;7.20;4.40;;;;;;;31.15;39.15;99479.34;109015;278;38969;-74
2023/09/22 09:54:11;;;;;;;7.50;4.60;;;;;;;30.78;39.52;99480.88;108972;278;39316;-75
2023/09/22 09:56:45;;;;;;;12.50;4.20;;;;;;;30.41;39.94;99481.41;108996;278;38564;-75
2023/09/22 09:59:20;;;;;;;9.40;4.70;;;;;;;30.08;40.22;99488.40;108979;278;38787;-75
2023/09/22 10:01:55;;;;;;;7.00;4.90;;;;;;;29.73;40.98;99487.95;108962;278;38155;-75
2023/09/22 10:04:30;;;;;;;7.00;4.20;;;;;;;29.47;41.26;99482.21;108824;278;171738;-75
2023/09/22 10:07:09;;;;;;;7.60;4.60;;;;;;;29.16;41.72;99482.70;108945;278;38727;-74
2023/09/22 10:09:45;;;;;;;7.90;4.70;;;;;;;28.88;42.29;99481.12;108885;278;39055;-74
2023/09/22 10:12:24;;;;;;;5.80;4.80;;;;;;;28.72;42.84;99476.71;108966;278;38224;-75
2023/09/22 10:15:01;;;;;;;11.10;5.00;;;;;;;28.55;42.94;99478.73;108916;278;38412;-75
2023/09/22 10:17:38;;;;;;;8.10;5.00;;;;;;;28.39;43.33;99476.55;108955;278;38864;-75
2023/09/22 10:20:19;;;;;;;8.90;4.80;;;;;;;28.22;43.79;99477.34;108906;278;38911;-75
2023/09/22 10:23:06;;;;;;;8.00;5.10;;;;;;;28.08;44.07;99482.19;108954;278;39123;-74
2023/09/22 10:25:42;;;;;;;7.50;4.80;;;;;;;27.92;44.48;99474.70;108994;278;39264;-75
2023/09/22 10:28:29;;;;;;;8.30;4.60;;;;;;;27.79;44.58;99473.34;108979;278;38158;-74
2023/09/22 10:31:17;;;;;;;7.60;4.80;;;;;;;27.61;44.75;99481.23;108995;278;38345;-75
2023/09/22 10:34:00;;;;;;;7.40;4.70;;;;;;;27.40;45.07;99474.49;108944;278;39356;-74
2023/09/22 10:36:54;;;;;;;10.10;4.70;;;;;;;27.22;45.45;99466.47;108960;278;38166;-75
2023/09/22 10:42:45;;;;;;;9.30;4.60;;;;;;;27.16;46.10;99459.16;106639;306;603626;-75
2023/09/22 10:45:25;;;;;;;8.50;5.30;;;;;;;27.20;46.22;99454.67;108825;281;38654;-74
2023/09/22 10:48:11;;;;;;;9.00;4.90;;;;;;;27.23;46.29;99454.87;108869;281;39006;-75
2023/09/22 10:50:53;;;;;;;7.30;5.10;;;;;;;27.23;46.07;99460.91;108857;281;39023;-76
2023/09/22 10:53:27;;;;;;;8.00;5.40;;;;;;;27.18;45.90;99461.79;108850;281;39724;-78
2023/09/22 10:56:07;;;;;;;6.10;4.40;;;;;;;27.15;46.32;99461.05;108458;279;567359;-75
2023/09/22 10:58:42;;;;;;;7.90;4.40;;;;;;;27.13;46.37;99474.57;108904;279;38810;-74
2023/09/22 11:01:21;;;;;;;9.10;4.80;;;;;;;27.06;46.22;99471.48;108879;279;38420;-74
2023/09/22 11:04:04;;;;;;;9.10;4.80;;;;;;;27.01;46.31;99474.59;108883;279;38373;-74
2023/09/22 11:06:50;;;;;;;8.30;4.80;;;;;;;26.93;46.53;99466.18;108909;279;38229;-75
2023/09/22 11:09:37;;;;;;;9.20;4.90;;;;;;;26.88;46.49;99468.13;108865;279;38684;-75
2023/09/22 11:12:16;;;;;;;9.60;5.00;;;;;;;26.86;46.62;99469.05;108902;279;38783;-75
2023/09/22 11:14:51;;;;;;;7.80;4.30;;;;;;;26.87;46.82;99466.80;108905;279;38256;-74
2023/09/22 11:17:41;;;;;;;9.20;4.90;;;;;;;26.89;46.76;99470.70;108947;279;38412;-76
2023/09/22 11:20:26;;;;;;;9.50;4.90;;;;;;;26.88;46.59;99469.77;108908;279;38165;-76
2023/09/22 11:23:03;;;;;;;12.70;5.30;;;;;;;26.91;46.50;99453.94;108962;279;38456;-75
2023/09/22 11:25:42;;;;;;;7.00;4.90;;;;;;;26.94;46.77;99442.35;108793;279;174187;-74
2023/09/22 11:28:21;;;;;;;11.20;5.40;;;;;;;26.95;46.67;99441.67;108906;279;38156;-76
2023/09/22 11:30:58;;;;;;;8.40;5.20;;;;;;;26.93;46.70;99446.52;108893;279;38690;-76
2023/09/22 11:33:33;;;;;;;7.90;5.20;;;;;;;26.93;46.99;99455.14;108813;279;38293;-75
2023/09/22 11:36:11;;;;;;;6.40;4.80;;;;;;;26.91;47.01;99449.64;108863;279;38832;-75
2023/09/22 11:38:53;;;;;;;8.10;4.90;;;;;;;26.90;47.18;99448.13;108885;279;38145;-76
2023/09/22 11:41:29;;;;;;;6.40;5.10;;;;;;;26.92;46.89;99452.23;108850;279;39692;-75
2023/09/22 11:44:04;;;;;;;7.90;5.00;;;;;;;26.91;46.91;99449.30;108845;279;38688;-74
2023/09/22 11:46:38;;;;;;;7.80;5.10;;;;;;;26.87;47.00;99448.70;108895;279;38774;-75
2023/09/22 11:49:15;;;;;;;8.20;4.90;;;;;;;26.84;46.92;99447.67;108900;279;38131;-75
2023/09/22 11:51:58;;;;;;;12.00;5.50;;;;;;;26.79;47.03;99448.88;108885;279;39203;-75
2023/09/22 11:54:34;;;;;;;9.50;4.80;;;;;;;26.72;47.33;99448.91;108930;280;38167;-74
2023/09/22 11:57:12;;;;;;;8.00;5.00;;;;;;;26.66;47.53;99456.27;108895;279;38675;-75
2023/09/22 11:59:48;;;;;;;7.60;4.90;;;;;;;26.57;47.63;99468.43;108938;279;39404;-74
2023/09/22 12:02:22;;;;;;;8.60;4.80;;;;;;;26.50;47.83;99471.09;108944;280;38128;-74
2023/09/22 12:05:01;;;;;;;7.80;5.20;;;;;;;26.47;47.93;99474.27;108893;279;38294;-74
2023/09/22 12:07:36;;;;;;;6.90;5.40;;;;;;;26.47;48.12;99477.52;109288;275;38173;-75
2023/09/22 12:10:11;;;;;;;8.90;5.70;;;;;;;26.47;48.28;99478.23;109403;275;39387;-75
2023/09/22 12:12:46;;;;;;;11.20;5.30;;;;;;;26.46;48.16;99483.37;109531;275;39751;-76
2023/09/22 12:15:22;;;;;;;9.80;5.80;;;;;;;26.40;47.86;99488.13;109388;275;38639;-75
2023/09/22 12:17:56;;;;;;;9.30;5.10;;;;;;;26.32;47.95;99482.61;109478;274;38773;-75
2023/09/22 12:20:30;;;;;;;9.10;4.80;;;;;;;26.25;48.42;99484.55;109269;275;39717;-75
2023/09/22 12:23:10;;;;;;;9.20;5.00;;;;;;;26.17;48.43;99487.14;109499;274;38634;-75